createdAt,value
2018-08-24T00:01:18.206Z,101009.13
2018-08-24T00:03:46.741Z,101017.55
2018-08-24T00:06:15.275Z,101018.00
2018-08-24T00:08:43.717Z,101009.13
2018-08-24T00:11:12.228Z,101011.34
2018-08-24T00:13:53.778Z,101013.56
2018-08-24T00:16:27.252Z,101006.47
2018-08-24T00:18:55.846Z,101006.47
2018-08-24T00:21:24.402Z,101009.13
2018-08-24T00:23:52.895Z,101003.37
2018-08-24T00:26:21.455Z,101002.05
2018-08-24T00:28:49.876Z,101000.72
2018-08-24T00:31:18.426Z,100998.51
2018-08-24T00:33:52.867Z,101004.72
2018-08-24T00:36:23.285Z,100998.97
2018-08-24T00:38:51.875Z,101003.41
2018-08-24T00:41:20.333Z,101002.98
2018-08-24T00:43:49.055Z,100996.34
2018-08-24T00:46:17.517Z,101002.55
2018-08-24T00:48:46.609Z,100995.91
2018-08-24T00:51:15.037Z,100994.59
2018-08-24T00:53:43.960Z,100991.05
2018-08-24T00:56:13.695Z,100993.27
2018-08-24T00:58:42.286Z,100997.70
2018-08-24T01:01:11.837Z,100998.58
2018-08-24T01:03:40.323Z,100989.28
2018-08-24T01:06:09.056Z,100987.95
2018-08-24T01:08:37.535Z,100979.50
2018-08-24T01:11:06.035Z,100970.64
2018-08-24T01:13:35.357Z,100969.31
2018-08-24T01:16:04.021Z,100971.53
2018-08-24T01:18:37.921Z,100975.07
2018-08-24T01:21:06.394Z,100976.40
2018-08-24T01:23:35.289Z,100976.84
2018-08-24T01:26:04.580Z,100980.83
2018-08-24T01:28:33.080Z,100977.73
2018-08-24T01:31:07.747Z,100971.52
2018-08-24T01:33:36.285Z,100979.94
2018-08-24T01:36:08.979Z,100982.55
2018-08-24T01:38:37.445Z,100984.77
2018-08-24T01:41:06.058Z,100983.00
2018-08-24T01:43:35.642Z,100978.12
2018-08-24T01:46:12.515Z,100980.78
2018-08-24T01:48:41.704Z,100978.56
2018-08-24T01:51:10.317Z,100975.91
2018-08-24T01:53:38.868Z,100978.12
2018-08-24T01:56:07.292Z,100971.03
2018-08-24T01:58:35.872Z,100974.12
2018-08-24T02:01:04.945Z,100976.34
2018-08-24T02:03:33.494Z,100975.02
2018-08-24T02:06:07.758Z,100967.93
2018-08-24T02:08:37.238Z,100967.92
2018-08-24T02:11:11.484Z,100965.72
2018-08-24T02:13:46.575Z,100963.06
2018-08-24T02:16:15.160Z,100965.28
2018-08-24T02:18:49.051Z,100967.94
2018-08-24T02:21:22.879Z,100968.38
2018-08-24T02:23:51.350Z,100967.49
2018-08-24T02:26:20.789Z,100965.28
2018-08-24T02:28:49.343Z,100962.63
2018-08-24T02:31:17.865Z,100957.75
2018-08-24T02:33:46.365Z,100963.95
2018-08-24T02:36:38.071Z,100965.28
2018-08-24T02:39:09.872Z,100967.94
2018-08-24T02:41:38.444Z,100976.79
2018-08-24T02:44:06.960Z,100970.59
2018-08-24T02:46:35.487Z,100965.72
2018-08-24T02:49:04.090Z,100959.52
2018-08-24T02:51:32.935Z,100961.73
2018-08-24T02:54:01.542Z,100963.95
2018-08-24T02:56:30.100Z,100967.05
2018-08-24T02:58:58.592Z,100974.56
2018-08-24T03:01:27.201Z,100973.23
2018-08-24T03:03:55.761Z,100972.36
2018-08-24T03:06:24.295Z,100979.89
2018-08-24T03:08:52.910Z,100977.23
2018-08-24T03:11:21.389Z,100970.15
2018-08-24T03:13:49.883Z,100975.02
2018-08-24T03:16:18.472Z,100974.58
2018-08-24T03:18:46.928Z,100973.24
2018-08-24T03:21:15.440Z,100964.39
2018-08-24T03:24:09.204Z,100970.58
2018-08-24T03:26:37.643Z,100968.81
2018-08-24T03:29:34.865Z,100961.72
2018-08-24T03:32:03.486Z,100963.49
2018-08-24T03:34:32.039Z,100969.70
2018-08-24T03:37:00.593Z,100971.02
2018-08-24T03:39:29.065Z,100969.25
2018-08-24T03:41:57.637Z,100969.70
2018-08-24T03:44:26.228Z,100969.70
2018-08-24T03:46:54.924Z,100971.48
2018-08-24T03:49:23.449Z,100966.17
2018-08-24T03:51:52.080Z,100962.19
2018-08-24T03:54:21.699Z,100969.71
2018-08-24T03:56:54.500Z,100973.25
2018-08-24T03:59:23.730Z,100965.28
2018-08-24T04:01:53.293Z,100963.07
2018-08-24T04:04:21.750Z,100968.83
2018-08-24T04:06:50.353Z,100972.37
2018-08-24T04:09:18.836Z,100971.03
2018-08-24T04:11:47.422Z,100974.58
2018-08-24T04:14:15.904Z,100986.98
2018-08-24T04:17:58.856Z,100982.11
2018-08-24T04:20:27.358Z,100980.78
2018-08-24T04:22:55.939Z,100986.09
2018-08-24T04:25:24.405Z,100986.53
2018-08-24T04:27:52.861Z,100978.12
2018-08-24T04:30:21.323Z,100978.12
2018-08-24T04:32:49.880Z,100976.35
2018-08-24T04:35:18.422Z,100981.22
2018-08-24T04:38:02.302Z,100979.45
2018-08-24T04:40:30.892Z,100988.75
2018-08-24T04:43:00.082Z,100982.55
2018-08-24T04:45:28.739Z,100985.21
2018-08-24T04:47:57.413Z,100983.89
2018-08-24T04:50:25.867Z,100989.64
2018-08-24T04:52:54.329Z,100988.75
2018-08-24T04:55:23.829Z,100984.33
2018-08-24T04:57:52.345Z,100989.64
2018-08-24T05:00:20.859Z,100993.22
2018-08-24T05:02:49.422Z,100995.88
2018-08-24T05:05:18.014Z,100999.42
2018-08-24T05:07:46.500Z,100991.89
2018-08-24T05:10:14.990Z,100998.53
2018-08-24T05:12:49.295Z,101000.31
2018-08-24T05:15:17.774Z,101004.73
2018-08-24T05:17:46.459Z,101009.17
2018-08-24T05:20:15.545Z,101009.61
2018-08-24T05:22:44.000Z,101009.61
2018-08-24T05:25:12.546Z,101014.92
2018-08-24T05:27:41.097Z,101013.16
2018-08-24T05:30:09.621Z,101009.61
2018-08-24T05:32:46.049Z,101016.70
2018-08-24T05:35:14.655Z,101014.92
2018-08-24T05:37:43.217Z,101025.11
2018-08-24T05:40:11.708Z,101014.92
2018-08-24T05:42:41.608Z,101010.49
2018-08-24T05:45:11.157Z,101022.90
2018-08-24T05:47:39.775Z,101025.55
2018-08-24T05:50:08.382Z,101026.87
2018-08-24T05:52:37.074Z,101035.74
2018-08-24T05:55:05.934Z,101037.52
2018-08-24T05:57:34.481Z,101033.97
2018-08-24T06:00:03.080Z,101041.50
2018-08-24T06:02:31.632Z,101045.94
2018-08-24T06:05:00.204Z,101044.16
2018-08-24T06:07:28.900Z,101052.58
2018-08-24T06:09:57.388Z,101050.36
2018-08-24T06:12:25.966Z,101054.34
2018-08-24T06:14:54.528Z,101058.77
2018-08-24T06:17:28.327Z,101050.36
2018-08-24T06:19:56.891Z,101050.80
2018-08-24T06:22:25.704Z,101054.79
2018-08-24T06:24:54.216Z,101058.77
2018-08-24T06:27:22.790Z,101057.89
2018-08-24T06:30:02.735Z,101066.31
2018-08-24T06:32:31.313Z,101071.63
2018-08-24T06:34:59.801Z,101075.16
2018-08-24T06:37:28.280Z,101079.59
2018-08-24T06:39:56.778Z,101087.13
2018-08-24T06:42:25.270Z,101084.91
2018-08-24T06:44:53.720Z,101075.62
2018-08-24T06:47:22.292Z,101092.00
2018-08-24T06:49:50.719Z,101103.07
2018-08-24T06:52:19.364Z,101089.78
2018-08-24T06:54:47.888Z,101096.42
2018-08-24T06:57:16.550Z,101107.48
2018-08-24T06:59:45.278Z,101107.88
2018-08-24T07:02:13.663Z,101100.32
2018-08-24T07:04:42.218Z,101103.38
2018-08-24T07:07:10.819Z,101109.97
2018-08-24T07:09:39.981Z,101110.80
2018-08-24T07:12:10.762Z,101117.33
2018-08-24T07:14:44.838Z,101123.47
2018-08-24T07:17:13.409Z,101133.56
2018-08-24T07:19:41.892Z,101130.42
2018-08-24T07:22:10.443Z,101134.41
2018-08-24T07:24:38.961Z,101133.52
2018-08-24T07:27:07.452Z,101145.06
2018-08-24T07:29:35.946Z,101145.11
2018-08-24T07:32:04.520Z,101156.19
2018-08-24T07:34:33.005Z,101154.84
2018-08-24T07:37:01.552Z,101153.95
2018-08-24T07:39:30.043Z,101160.59
2018-08-24T07:41:59.772Z,101159.27
2018-08-24T07:44:28.292Z,101168.59
2018-08-24T07:46:57.300Z,101170.01
2018-08-24T07:49:25.806Z,101168.77
2018-08-24T07:51:54.329Z,101171.98
2018-08-24T07:54:22.905Z,101177.38
2018-08-24T07:56:51.448Z,101172.59
2018-08-24T07:59:19.969Z,101181.88
2018-08-24T08:01:48.538Z,101186.68
2018-08-24T08:04:17.032Z,101188.88
2018-08-24T08:06:45.516Z,101189.73
2018-08-24T08:09:14.073Z,101185.27
2018-08-24T08:11:42.563Z,101195.03
2018-08-24T08:14:11.149Z,101194.21
2018-08-24T08:16:39.628Z,101185.47
2018-08-24T08:19:08.191Z,101193.08
2018-08-24T08:21:36.711Z,101198.86
2018-08-24T08:24:05.175Z,101188.23
2018-08-24T08:26:33.709Z,101194.47
2018-08-24T08:29:02.343Z,101198.03
2018-08-24T08:31:30.841Z,101203.78
2018-08-24T08:33:59.308Z,101210.37
2018-08-24T08:36:27.818Z,101216.96
2018-08-24T08:38:56.316Z,101204.11
2018-08-24T08:41:24.768Z,101209.03
2018-08-24T08:43:53.338Z,101215.25
2018-08-24T08:46:21.897Z,101219.26
2018-08-24T08:49:04.993Z,101223.27
2018-08-24T08:51:33.575Z,101223.72
2018-08-24T08:54:02.167Z,101219.30
2018-08-24T08:56:30.687Z,101222.89
2018-08-24T08:58:59.414Z,101220.70
2018-08-24T09:01:27.864Z,101225.62
2018-08-24T09:03:56.304Z,101223.37
2018-08-24T09:06:24.957Z,101232.72
2018-08-24T09:08:53.422Z,101230.06
2018-08-24T09:11:21.953Z,101223.85
2018-08-24T09:13:50.415Z,101236.27
2018-08-24T09:16:18.995Z,101225.16
2018-08-24T09:18:52.781Z,101228.29
2018-08-24T09:21:26.421Z,101240.27
2018-08-24T09:24:00.083Z,101234.48
2018-08-24T09:26:33.993Z,101237.55
2018-08-24T09:29:08.633Z,101233.53
2018-08-24T09:31:38.976Z,101230.85
2018-08-24T09:34:07.731Z,101227.25
2018-08-24T09:36:36.308Z,101224.02
2018-08-24T09:39:06.837Z,101221.81
2018-08-24T09:41:35.272Z,101228.45
2018-08-24T09:44:03.747Z,101236.43
2018-08-24T09:46:37.789Z,101231.55
2018-08-24T09:49:12.136Z,101232.39
2018-08-24T09:51:40.658Z,101238.62
2018-08-24T09:54:22.921Z,101236.39
2018-08-24T09:56:51.829Z,101243.89
2018-08-24T09:59:20.401Z,101232.84
2018-08-24T10:01:54.198Z,101231.55
2018-08-24T10:04:28.070Z,101226.19
2018-08-24T10:07:01.945Z,101228.08
2018-08-24T10:09:30.500Z,101229.41
2018-08-24T10:11:58.966Z,101230.68
2018-08-24T10:14:27.554Z,101226.16
2018-08-24T10:16:56.012Z,101231.38
2018-08-24T10:19:24.543Z,101229.09
2018-08-24T10:21:53.111Z,101226.47
2018-08-24T10:24:21.573Z,101227.80
2018-08-24T10:26:50.062Z,101219.22
2018-08-24T10:29:18.638Z,101228.58
2018-08-24T10:31:47.142Z,101227.66
2018-08-24T10:34:15.624Z,101228.70
2018-08-24T10:36:44.209Z,101222.25
2018-08-24T10:39:13.021Z,101224.04
2018-08-24T10:41:41.755Z,101227.13
2018-08-24T10:44:10.157Z,101216.83
2018-08-24T10:46:38.768Z,101227.02
2018-08-24T10:49:07.380Z,101221.31
2018-08-24T10:51:35.970Z,101220.22
2018-08-24T10:54:04.761Z,101226.43
2018-08-24T10:56:33.231Z,101229.50
2018-08-24T10:59:01.779Z,101231.80
2018-08-24T11:01:30.316Z,101230.27
2018-08-24T11:03:58.864Z,101227.48
2018-08-24T11:06:27.473Z,101227.47
2018-08-24T11:08:56.096Z,101219.71
2018-08-24T11:11:24.896Z,101214.53
2018-08-24T11:13:53.313Z,101213.66
2018-08-24T11:16:21.741Z,101217.52
2018-08-24T11:18:50.290Z,101214.67
2018-08-24T11:21:18.781Z,101211.38
2018-08-24T11:23:55.003Z,101221.83
2018-08-24T11:26:23.702Z,101211.43
2018-08-24T11:28:52.161Z,101217.44
2018-08-24T11:31:20.657Z,101221.56
2018-08-24T11:33:49.127Z,101226.57
2018-08-24T11:36:23.557Z,101226.66
2018-08-24T11:38:53.618Z,101231.28
2018-08-24T11:41:22.179Z,101232.23
2018-08-24T11:43:50.847Z,101234.55
2018-08-24T11:46:19.281Z,101235.53
2018-08-24T11:48:47.896Z,101235.03
2018-08-24T11:51:16.362Z,101234.17
2018-08-24T11:53:44.936Z,101232.31
2018-08-24T11:56:13.362Z,101232.74
2018-08-24T11:58:41.964Z,101221.55
2018-08-24T12:01:10.555Z,101218.22
2018-08-24T12:03:39.189Z,101218.69
2018-08-24T12:06:07.689Z,101213.80
2018-08-24T12:08:36.169Z,101215.03
2018-08-24T12:11:04.652Z,101215.72
2018-08-24T12:13:33.204Z,101221.14
2018-08-24T12:16:01.700Z,101223.33
2018-08-24T12:18:30.795Z,101215.63
2018-08-24T12:20:59.187Z,101214.77
2018-08-24T12:23:27.590Z,101216.00
2018-08-24T12:25:56.177Z,101214.05
2018-08-24T12:28:25.201Z,101224.41
2018-08-24T12:30:53.815Z,101227.61
2018-08-24T12:33:23.446Z,101228.67
2018-08-24T12:35:52.034Z,101226.47
2018-08-24T12:38:29.619Z,101220.80
2018-08-24T12:40:58.421Z,101219.80
2018-08-24T12:43:27.169Z,101223.95
2018-08-24T12:45:56.029Z,101236.30
2018-08-24T12:48:24.833Z,101229.13
2018-08-24T12:50:53.713Z,101235.22
2018-08-24T12:53:24.144Z,101234.05
2018-08-24T12:55:52.642Z,101220.70
2018-08-24T12:58:21.188Z,101224.58
2018-08-24T13:00:49.838Z,101222.41
2018-08-24T13:03:18.678Z,101227.58
2018-08-24T13:05:47.273Z,101215.47
2018-08-24T13:08:15.909Z,101220.81
2018-08-24T13:10:44.625Z,101216.11
2018-08-24T13:13:13.314Z,101217.88
2018-08-24T13:15:42.016Z,101220.14
2018-08-24T13:18:10.908Z,101212.63
2018-08-24T13:20:39.474Z,101210.47
2018-08-24T13:23:08.518Z,101201.28
2018-08-24T13:25:37.104Z,101202.87
2018-08-24T13:28:05.609Z,101211.62
2018-08-24T13:30:34.076Z,101211.48
2018-08-24T13:33:03.583Z,101211.77
2018-08-24T13:35:32.909Z,101211.62
2018-08-24T13:38:01.480Z,101212.54
2018-08-24T13:40:30.321Z,101202.22
2018-08-24T13:42:59.320Z,101211.11
2018-08-24T13:45:28.574Z,101202.78
2018-08-24T13:47:57.153Z,101201.41
2018-08-24T13:50:27.221Z,101203.31
2018-08-24T13:52:55.758Z,101198.39
2018-08-24T13:55:24.267Z,101198.34
2018-08-24T13:57:52.813Z,101189.08
2018-08-24T14:00:21.745Z,101199.48
2018-08-24T14:02:50.432Z,101192.94
2018-08-24T14:05:19.515Z,101196.63
2018-08-24T14:07:48.393Z,101211.30
2018-08-24T14:10:18.394Z,101206.38
2018-08-24T14:12:47.450Z,101204.28
2018-08-24T14:15:18.290Z,101191.40
2018-08-24T14:17:54.038Z,101205.47
2018-08-24T14:20:23.785Z,101198.08
2018-08-24T14:22:52.831Z,101196.23
2018-08-24T14:25:21.381Z,101193.22
2018-08-24T14:27:50.036Z,101201.27
2018-08-24T14:30:18.550Z,101182.70
2018-08-24T14:32:47.216Z,101190.23
2018-08-24T14:35:16.141Z,101187.91
2018-08-24T14:37:45.169Z,101186.95
2018-08-24T14:40:15.733Z,101183.69
2018-08-24T14:42:44.210Z,101183.08
2018-08-24T14:45:12.786Z,101175.47
2018-08-24T14:47:41.702Z,101169.69
2018-08-24T14:50:48.396Z,101175.56
2018-08-24T14:53:17.609Z,101180.62
2018-08-24T14:55:46.483Z,101177.14
2018-08-24T14:58:15.045Z,101187.80
2018-08-24T15:00:44.090Z,101188.20
2018-08-24T15:03:25.344Z,101184.28
2018-08-24T15:05:54.221Z,101184.37
2018-08-24T15:08:23.078Z,101177.75
2018-08-24T15:10:52.079Z,101179.95
2018-08-24T15:13:21.545Z,101183.16
2018-08-24T15:15:50.124Z,101180.59
2018-08-24T15:18:19.160Z,101187.36
2018-08-24T15:20:51.900Z,101180.25
2018-08-24T15:23:20.853Z,101184.28
2018-08-24T15:25:50.049Z,101176.25
2018-08-24T15:28:19.017Z,101175.02
2018-08-24T15:30:47.767Z,101170.08
2018-08-24T15:33:16.618Z,101174.98
2018-08-24T15:35:45.392Z,101180.33
2018-08-24T15:38:14.312Z,101176.72
2018-08-24T15:40:42.906Z,101171.82
2018-08-24T15:43:28.700Z,101175.86
2018-08-24T15:45:57.736Z,101179.92
2018-08-24T15:48:26.828Z,101178.63
2018-08-24T15:50:55.889Z,101184.92
2018-08-24T15:53:24.777Z,101176.94
2018-08-24T15:55:53.348Z,101183.60
2018-08-24T15:58:21.948Z,101180.00
2018-08-24T16:00:52.349Z,101177.38
2018-08-24T16:03:21.514Z,101175.09
2018-08-24T16:05:50.149Z,101182.70
2018-08-24T16:08:18.734Z,101178.38
2018-08-24T16:10:47.674Z,101173.52
2018-08-24T16:13:25.128Z,101168.64
2018-08-24T16:15:54.271Z,101171.80
2018-08-24T16:18:23.579Z,101168.69
2018-08-24T16:20:53.196Z,101170.89
2018-08-24T16:23:22.394Z,101169.14
2018-08-24T16:25:51.287Z,101158.96
2018-08-24T16:28:20.158Z,101160.31
2018-08-24T16:30:48.822Z,101169.67
2018-08-24T16:33:22.234Z,101170.17
2018-08-24T16:35:50.970Z,101163.08
2018-08-24T16:38:19.538Z,101158.20
2018-08-24T16:40:47.984Z,101163.98
2018-08-24T16:43:16.716Z,101161.77
2018-08-24T16:45:45.772Z,101150.62
2018-08-24T16:48:14.671Z,101158.16
2018-08-24T16:50:44.348Z,101164.41
2018-08-24T16:53:13.193Z,101152.88
2018-08-24T16:55:42.140Z,101154.27
2018-08-24T16:58:10.882Z,101158.75
2018-08-24T17:00:40.827Z,101157.44
2018-08-24T17:03:09.410Z,101155.23
2018-08-24T17:05:38.055Z,101156.59
2018-08-24T17:08:06.960Z,101150.84
2018-08-24T17:10:35.433Z,101150.88
2018-08-24T17:13:03.961Z,101155.34
2018-08-24T17:15:32.588Z,101149.13
2018-08-24T17:18:02.678Z,101154.91
2018-08-24T17:20:31.422Z,101152.27
2018-08-24T17:23:00.100Z,101152.74
2018-08-24T17:25:28.718Z,101143.88
2018-08-24T17:27:57.814Z,101150.11
2018-08-24T17:30:26.734Z,101150.12
2018-08-24T17:32:55.538Z,101143.92
2018-08-24T17:35:24.038Z,101145.27
2018-08-24T17:37:52.880Z,101145.68
2018-08-24T17:40:21.814Z,101142.13
2018-08-24T17:42:50.506Z,101143.46
2018-08-24T17:45:19.231Z,101140.36
2018-08-24T17:48:23.867Z,101144.81
2018-08-24T17:50:52.591Z,101139.06
2018-08-24T17:53:21.479Z,101139.06
2018-08-24T17:55:50.189Z,101134.64
2018-08-24T17:58:47.400Z,101137.31
2018-08-24T18:01:19.705Z,101131.99
2018-08-24T18:03:48.229Z,101129.78
2018-08-24T18:06:17.005Z,101125.78
2018-08-24T18:08:45.777Z,101133.78
2018-08-24T18:11:14.264Z,101133.78
2018-08-24T18:13:42.846Z,101125.36
2018-08-24T18:16:11.335Z,101124.92
2018-08-24T18:18:39.957Z,101122.23
2018-08-24T18:21:18.475Z,101127.11
2018-08-24T18:23:46.952Z,101124.90
2018-08-24T18:26:15.589Z,101124.91
2018-08-24T18:28:44.561Z,101125.34
2018-08-24T18:31:13.210Z,101121.36
2018-08-24T18:33:41.857Z,101124.91
2018-08-24T18:36:10.457Z,101124.91
2018-08-24T18:38:39.171Z,101122.24
2018-08-24T18:41:07.996Z,101124.45
2018-08-24T18:43:36.692Z,101124.89
2018-08-24T18:46:05.763Z,101123.12
2018-08-24T18:48:34.486Z,101118.23
2018-08-24T18:51:03.390Z,101115.13
2018-08-24T18:53:46.782Z,101119.56
2018-08-24T18:56:15.376Z,101119.56
2018-08-24T18:58:44.365Z,101121.33
2018-08-24T19:01:14.437Z,101121.77
2018-08-24T19:03:44.086Z,101123.55
2018-08-24T19:06:17.350Z,101116.02
2018-08-24T19:08:45.857Z,101111.58
2018-08-24T19:11:19.667Z,101116.45
2018-08-24T19:13:48.257Z,101119.09
2018-08-24T19:16:16.857Z,101114.67
2018-08-24T19:18:52.048Z,101118.67
2018-08-24T19:21:26.869Z,101126.62
2018-08-24T19:23:55.479Z,101120.43
2018-08-24T19:26:24.560Z,101128.84
2018-08-24T19:28:58.433Z,101124.38
2018-08-24T19:31:27.013Z,101120.42
2018-08-24T19:33:57.777Z,101120.44
2018-08-24T19:36:26.585Z,101117.33
2018-08-24T19:38:55.107Z,101111.13
2018-08-24T19:41:28.993Z,101110.23
2018-08-24T19:43:58.387Z,101116.84
2018-08-24T19:46:27.155Z,101111.06
2018-08-24T19:49:00.798Z,101112.38
2018-08-24T19:51:29.325Z,101114.13
2018-08-24T19:53:57.883Z,101114.95
2018-08-24T19:56:26.540Z,101110.94
2018-08-24T19:59:00.362Z,101116.66
2018-08-24T20:01:29.081Z,101116.19
2018-08-24T20:04:19.406Z,101111.28
2018-08-24T20:06:53.346Z,101105.44
2018-08-24T20:09:27.149Z,101107.16
2018-08-24T20:11:55.712Z,101104.92
2018-08-24T20:14:29.551Z,101109.77
2018-08-24T20:17:03.880Z,101099.55
2018-08-24T20:19:32.503Z,101101.26
2018-08-24T20:22:01.088Z,101098.52
2018-08-24T20:24:37.849Z,101101.06
2018-08-24T20:27:06.274Z,101088.16
2018-08-24T20:29:35.152Z,101096.12
2018-08-24T20:32:03.739Z,101090.84
2018-08-24T20:34:32.423Z,101090.44
2018-08-24T20:37:00.993Z,101087.86
2018-08-24T20:39:29.595Z,101084.85
2018-08-24T20:41:58.254Z,101079.58
2018-08-24T20:44:26.838Z,101082.25
2018-08-24T20:46:55.323Z,101071.19
2018-08-24T20:49:23.880Z,101067.63
2018-08-24T20:51:52.480Z,101069.81
2018-08-24T20:54:21.124Z,101060.95
2018-08-24T20:56:49.621Z,101058.61
2018-08-24T20:59:18.433Z,101058.13
2018-08-24T21:01:47.095Z,101062.92
2018-08-24T21:04:15.713Z,101069.08
2018-08-24T21:06:44.425Z,101065.97
2018-08-24T21:09:12.957Z,101060.61
2018-08-24T21:11:41.446Z,101063.67
2018-08-24T21:14:09.959Z,101059.67
2018-08-24T21:16:38.543Z,101057.89
2018-08-24T21:19:07.161Z,101063.73
2018-08-24T21:21:35.789Z,101057.56
2018-08-24T21:24:04.375Z,101051.80
2018-08-24T21:26:32.980Z,101061.95
2018-08-24T21:29:01.556Z,101058.05
2018-08-24T21:31:30.638Z,101054.16
2018-08-24T21:33:59.250Z,101060.51
2018-08-24T21:36:36.618Z,101059.66
2018-08-24T21:39:08.876Z,101061.00
2018-08-24T21:41:37.881Z,101057.48
2018-08-24T21:44:06.679Z,101061.47
2018-08-24T21:46:35.174Z,101063.19
2018-08-24T21:49:04.447Z,101060.45
2018-08-24T21:51:33.023Z,101057.28
2018-08-24T21:54:01.456Z,101059.86
2018-08-24T21:56:30.129Z,101063.35
2018-08-24T21:58:58.622Z,101063.33
2018-08-24T22:01:27.273Z,101071.27
2018-08-24T22:03:55.873Z,101071.26
2018-08-24T22:06:51.441Z,101059.75
2018-08-24T22:09:19.976Z,101057.54
2018-08-24T22:11:49.237Z,101056.23
2018-08-24T22:14:18.960Z,101055.34
2018-08-24T22:16:47.562Z,101054.56
2018-08-24T22:19:16.142Z,101059.95
2018-08-24T22:21:44.653Z,101060.51
2018-08-24T22:24:13.211Z,101062.30
2018-08-24T22:26:41.719Z,101064.94
2018-08-24T22:29:10.313Z,101065.41
2018-08-24T22:31:38.831Z,101063.22
2018-08-24T22:34:07.494Z,101060.58
2018-08-24T22:36:36.200Z,101070.77
2018-08-24T22:39:06.534Z,101068.13
2018-08-24T22:41:35.109Z,101058.39
2018-08-24T22:44:04.194Z,101058.39
2018-08-24T22:46:33.094Z,101056.64
2018-08-24T22:49:02.407Z,101058.41
2018-08-24T22:51:31.249Z,101044.27
2018-08-24T22:54:00.704Z,101052.68
2018-08-24T22:56:29.972Z,101049.56
2018-08-24T22:58:58.818Z,101042.94
2018-08-24T23:01:27.705Z,101038.97
2018-08-24T23:03:56.361Z,101035.42
2018-08-24T23:06:25.113Z,101027.89
2018-08-24T23:08:53.797Z,101026.55
2018-08-24T23:11:23.389Z,101023.88
2018-08-24T23:13:52.185Z,101014.61
2018-08-24T23:16:20.911Z,101010.20
2018-08-24T23:18:49.553Z,101007.97
2018-08-24T23:21:18.904Z,101003.09
2018-08-24T23:23:47.660Z,101005.73
2018-08-24T23:26:16.484Z,100996.00
2018-08-24T23:28:46.250Z,100990.28
2018-08-24T23:31:14.973Z,100985.42
2018-08-24T23:33:44.285Z,100978.80
2018-08-24T23:36:12.989Z,100978.34
2018-08-24T23:38:41.713Z,100972.59
2018-08-24T23:41:10.621Z,100973.91
2018-08-24T23:43:39.337Z,100971.25
2018-08-24T23:46:09.646Z,100968.13
2018-08-24T23:48:38.769Z,100956.19
2018-08-24T23:51:07.502Z,100950.44
2018-08-24T23:53:36.200Z,100947.77
2018-08-24T23:56:04.898Z,100943.34
2018-08-24T23:58:38.490Z,100939.70
